• Join FlightAware (Why Join?)
  • Login
  • US Flag 
03:29PM EST


 

Airport Tracker/Info


-or-


 

Live Flight TrackerFlight Track Log ✈ ASQ2593 ✈ 11-Jun-2013 ✈ KCLL - KDFW

Flight Track Log - Related Links

Times and Time Zones

All times are in EDT time to prevent confusion due to time zone crossing. See the ASQ2593 flight status page for this flight to view local times or setup timezone preferences in your user account.

Time Position Orientation Groundspeed Altitude Reporting Facility
EDT Latitude Longitude Course Direction KTS MPH feet Rate Location/Type
04:32PM 30.5497 -96.3294 133° Southeast 180 207 2,400  Level Houston Center
04:32PM 30.5675 -96.3083 46° Northeast 227 261 3,100 1,740 Climbing Houston Center
04:33PM 30.6086 -96.3083 360° North 262 302 4,200 1,500 Climbing Houston Center
04:33PM 30.6367 -96.3064 North 250 288 4,700 1,860 Climbing Houston Center
04:34PM 30.7200 -96.3078 359° North 288 331 6,900 2,040 Climbing Houston Center
04:35PM 30.8078 -96.3083 360° North 308 354 9,000 2,040 Climbing Houston Center
04:36PM 30.8975 -96.3075 360° North 316 364 11,200 1,680 Climbing Houston Center
04:37PM 30.9889 -96.3094 359° North 331 381 12,500 1,200 Climbing Houston Center
04:38PM 31.1083 -96.3103 360° North 359 413 13,700 720 Climbing Houston Center
04:39PM 31.2164 -96.3119 359° North 380 437 14,100 120 Climbing Houston Center
04:40PM 31.3356 -96.3122 360° North 414 476 14,000 -60 Descending Houston Center
04:42PM 31.4558 -96.3053 North 425 489 14,000  Level Houston Center
04:43PM 31.5717 -96.2942 North 418 481 14,000  Level Houston Center
04:43PM 31.6533 -96.3225 344° North 417 480 14,000  Level Fort Worth Center
04:44PM 31.7642 -96.3506 348° North 412 474 14,000  Level Fort Worth Center
04:45PM 31.8750 -96.3711 351° North 406 467 14,000  Level Fort Worth Center
04:46PM 31.9836 -96.3872 353° North 401 461 14,100  Climbing Fort Worth Center
04:47PM 32.0944 -96.4081 351° North 396 456 14,000 -60 Descending Fort Worth Center
04:48PM 32.2053 -96.4239 353° North 396 456 14,000 -660 Level Fort Worth Center
04:49PM 32.3014 -96.4375 353° North 391 450 12,700 -1,380 Descending Fort Worth Center
04:50PM 32.4042 -96.4783 341° North 380 437 11,300 -840 Descending Fort Worth Center
04:51PM 32.4714 -96.5589 315° West 365 420 11,100 -180 Descending Fort Worth Center
04:52PM 32.5578 -96.6617 315° West 393 452 11,000  Descending Fort Worth Center
04:53PM 32.6292 -96.7450 315° West 399 459 11,100  Climbing Fort Worth Center
04:54PM 32.6667 -96.7833 319° Northwest 400 460 11,000 -180 Descending Dallas / Fort Worth TRACON
04:55PM 32.7333 -96.8667 314° West 316 364 10,900 -60 Descending Dallas / Fort Worth TRACON
04:55PM 32.8000 -96.9000 337° Northwest 260 299 10,900 -1,020 Level Dallas / Fort Worth TRACON
04:56PM 32.8833 -96.9000 360° North 256 295 9,000 -2,160 Descending Dallas / Fort Worth TRACON
04:57PM 32.9500 -96.9000 360° North 256 295 6,700 -2,100 Descending Dallas / Fort Worth TRACON
04:58PM 33.0167 -96.9000 360° North 247 284 4,800 -1,680 Descending Dallas / Fort Worth TRACON
04:59PM 33.0667 -96.9500 320° Northwest 223 257 3,400 -1,080 Descending Dallas / Fort Worth TRACON
05:00PM 33.0500 -97.0000 248° West 204 235 2,800 -660 Descending Dallas / Fort Worth TRACON
05:01PM 33.0000 -97.0167 196° South 171 197 2,200 -720 Descending Dallas / Fort Worth TRACON
05:02PM 32.9500 -97.0167 180° South 138 159 1,300 -720 Descending Dallas / Fort Worth TRACON
05:03PM 32.9167 -97.0167 180° South 134 154 700 -600 Descending Dallas / Fort Worth TRACON